KMGE/MGE METAR and TAF weather

Enter ICAO airport designator
Station Type Date Time Source
KMGE METAR 2019/08/24 22:56 UTC NOAA

KMGE 242256Z 12009KT 10SM FEW040 SCT060CB BKN250 27/22 A3001 RMK AO2A CB 30E STNRY TCU NW SLP153 T02710216 $


Station Type Date Time Source
KMGE Decoded METAR 2019/08/24 22:56 UTC NOAA

Station name not available
Aug 24, 2019 - 06:56 PM EDT / 2019.08.24 2256 UTC
Wind: from the ESE (120 degrees) at 10 MPH (9 KT):0
Visibility: 10 mile(s):0
Sky conditions: mostly cloudy
Weather: Cumulonimbus clouds, towering cumulus clouds observed
Temperature: 80.8 F (27.1 C)
Dew Point: 70.9 F (21.6 C)
Relative Humidity: 71%
Pressure (altimeter): 30.01 in. Hg (1016 hPa)
ob: KMGE 242256Z 12009KT 10SM FEW040 SCT060CB BKN250 27/22 A3001 RMK AO2A CB 30E STNRY TCU NW SLP153 T02710216
cycle: 23

Station Type Date Time Source
KMGE TAF 2019/08/24 21:26 UTC NOAA

TAF KMGE 242105Z 2421/2603 06010KT 9999 VCTS BKN055CB BKN250 QNH2995INS
TEMPO 2421/2501 VRB15G30KT 2400 TSRAGR BR BKN010CB OVC020
BECMG 2501/2502 08005KT 9999 VCSH BKN020 BKN120 BKN250 QNH2998INS
BECMG 2506/2507 08005KT 4800 BR OVC007 QNH3000INS
BECMG 2510/2511 09005KT 6000 BR VCSH OVC005 QNH3000INS
BECMG 2514/2515 09010KT 9999 VCSH OVC012 QNH3000INS
BECMG 2517/2518 10010KT 9999 VCSH OVC020 QNH2995INS TX30/2422Z TN16/2511Z

Example: see airport list